createdAt,value
2022-12-09T00:01:24.198Z,-1.91
2022-12-09T00:03:51.090Z,-2.01
2022-12-09T00:06:26.280Z,-2.21
2022-12-09T00:08:53.671Z,-2.11
2022-12-09T00:11:23.732Z,-1.93
2022-12-09T00:13:51.481Z,-1.85
2022-12-09T00:16:18.663Z,-1.85
2022-12-09T00:18:45.511Z,-1.89
2022-12-09T00:21:18.462Z,-1.93
2022-12-09T00:23:45.436Z,-1.97
2022-12-09T00:26:12.890Z,-2.10
2022-12-09T00:28:40.103Z,-2.26
2022-12-09T00:31:08.024Z,-2.00
2022-12-09T00:33:35.630Z,-2.09
2022-12-09T00:36:11.320Z,-2.33
2022-12-09T00:38:38.659Z,-2.27
2022-12-09T00:41:05.591Z,-2.30
2022-12-09T00:43:33.124Z,-2.23
2022-12-09T00:45:59.957Z,-2.50
2022-12-09T00:48:27.766Z,-2.26
2022-12-09T00:50:54.484Z,-2.31
2022-12-09T00:53:21.456Z,-2.50
2022-12-09T00:55:48.462Z,-2.57
2022-12-09T00:58:15.195Z,-2.34
2022-12-09T01:00:41.954Z,-2.52
2022-12-09T01:03:14.356Z,-2.80
2022-12-09T01:05:41.816Z,-2.61
2022-12-09T01:08:09.827Z,-2.48
2022-12-09T01:10:38.903Z,-2.41
2022-12-09T01:13:06.721Z,-2.53
2022-12-09T01:15:34.253Z,-2.56
2022-12-09T01:18:01.185Z,-3.01
2022-12-09T01:20:28.112Z,-2.93
2022-12-09T01:22:54.950Z,-3.10
2022-12-09T01:25:21.955Z,-3.11
2022-12-09T01:27:48.768Z,-3.18
2022-12-09T01:30:15.948Z,-3.16
2022-12-09T01:32:43.623Z,-3.03
2022-12-09T01:35:10.678Z,-3.30
2022-12-09T01:37:38.527Z,-3.16
2022-12-09T01:40:08.197Z,-3.30
2022-12-09T01:42:35.005Z,-3.24
2022-12-09T01:45:20.073Z,-3.24
2022-12-09T01:47:49.056Z,-3.30
2022-12-09T01:50:16.910Z,-3.56
2022-12-09T01:52:45.242Z,-3.50
2022-12-09T01:55:12.904Z,-3.48
2022-12-09T01:57:40.665Z,-3.27
2022-12-09T02:00:08.350Z,-3.36
2022-12-09T02:02:46.977Z,-3.11
2022-12-09T02:05:18.898Z,-3.20
2022-12-09T02:07:51.471Z,-3.21
2022-12-09T02:10:19.323Z,-3.51
2022-12-09T02:13:19.812Z,-3.31
2022-12-09T02:15:55.848Z,-3.47
2022-12-09T02:18:22.547Z,-3.26
2022-12-09T02:20:57.227Z,-3.47
2022-12-09T02:23:38.310Z,-3.31
2022-12-09T02:26:22.853Z,-4.19
2022-12-09T02:29:08.197Z,-3.51
2022-12-09T02:31:44.050Z,-3.62
2022-12-09T02:34:21.770Z,-3.58
2022-12-09T02:37:22.078Z,-3.52
2022-12-09T02:40:08.383Z,-3.45
2022-12-09T02:42:40.008Z,-3.60
2022-12-09T02:45:10.026Z,-3.46
2022-12-09T02:47:45.467Z,-3.59
2022-12-09T02:50:17.463Z,-3.77
2022-12-09T02:52:46.711Z,-3.61
2022-12-09T02:55:17.072Z,-3.53
2022-12-09T02:57:44.144Z,-3.50
2022-12-09T03:00:15.562Z,-3.74
2022-12-09T03:02:51.647Z,-3.86
2022-12-09T03:05:41.430Z,-3.76
2022-12-09T03:08:29.922Z,-3.78
2022-12-09T03:11:25.506Z,-3.84
2022-12-09T03:14:00.079Z,-3.96
2022-12-09T03:16:50.630Z,-3.90
2022-12-09T03:19:30.104Z,-3.86
2022-12-09T03:22:00.594Z,-3.86
2022-12-09T03:24:39.564Z,-3.65
2022-12-09T03:27:11.028Z,-3.92
2022-12-09T03:29:42.715Z,-3.69
2022-12-09T03:32:11.868Z,-3.90
2022-12-09T03:34:43.733Z,-3.50
2022-12-09T03:37:12.162Z,-3.61
2022-12-09T03:39:41.111Z,-3.70
2022-12-09T03:42:19.851Z,-3.75
2022-12-09T03:44:56.058Z,-3.78
2022-12-09T03:47:23.131Z,-3.95
2022-12-09T03:49:50.654Z,-4.00
2022-12-09T03:52:23.317Z,-3.80
2022-12-09T03:54:56.043Z,-3.88
2022-12-09T03:57:24.404Z,-4.09
2022-12-09T04:00:01.700Z,-3.72
2022-12-09T04:02:29.394Z,-3.83
2022-12-09T04:04:56.320Z,-4.24
2022-12-09T04:07:23.049Z,-4.12
2022-12-09T04:09:49.938Z,-3.89
2022-12-09T04:12:16.888Z,-4.00
2022-12-09T04:14:44.244Z,-3.79
2022-12-09T04:17:12.218Z,-3.81
2022-12-09T04:19:38.885Z,-4.25
2022-12-09T04:22:05.666Z,-3.91
2022-12-09T04:24:32.457Z,-3.82
2022-12-09T04:26:59.537Z,-3.96
2022-12-09T04:29:26.300Z,-3.71
2022-12-09T04:31:53.176Z,-3.80
2022-12-09T04:34:20.008Z,-3.77
2022-12-09T04:36:47.927Z,-3.97
2022-12-09T04:39:15.096Z,-3.98
2022-12-09T04:41:41.941Z,-4.02
2022-12-09T04:44:09.174Z,-3.96
2022-12-09T04:46:35.964Z,-3.64
2022-12-09T04:49:03.254Z,-3.66
2022-12-09T04:51:35.826Z,-3.79
2022-12-09T04:54:06.492Z,-3.77
2022-12-09T04:56:33.161Z,-3.71
2022-12-09T04:58:59.978Z,-3.56
2022-12-09T05:01:31.250Z,-3.88
2022-12-09T05:03:59.657Z,-3.50
2022-12-09T05:06:26.858Z,-3.70
2022-12-09T05:08:54.826Z,-3.90
2022-12-09T05:11:24.101Z,-3.83
2022-12-09T05:13:53.228Z,-3.70
2022-12-09T05:16:20.740Z,-3.51
2022-12-09T05:18:49.121Z,-3.59
2022-12-09T05:21:19.603Z,-3.66
2022-12-09T05:23:47.277Z,-3.83
2022-12-09T05:26:17.303Z,-3.94
2022-12-09T05:28:44.391Z,-3.76
2022-12-09T05:31:15.545Z,-3.70
2022-12-09T05:33:43.301Z,-3.78
2022-12-09T05:36:11.749Z,-4.07
2022-12-09T05:38:39.841Z,-3.92
2022-12-09T05:41:08.282Z,-3.92
2022-12-09T05:43:36.875Z,-4.42
2022-12-09T05:46:05.177Z,-3.91
2022-12-09T05:48:32.771Z,-4.05
2022-12-09T05:51:01.506Z,-3.98
2022-12-09T05:53:30.392Z,-3.93
2022-12-09T05:55:57.623Z,-4.11
2022-12-09T05:58:24.666Z,-4.00
2022-12-09T06:00:51.521Z,-4.04
2022-12-09T06:03:18.721Z,-4.13
2022-12-09T06:05:46.039Z,-3.99
2022-12-09T06:08:12.931Z,-4.15
2022-12-09T06:10:41.540Z,-3.66
2022-12-09T06:13:08.989Z,-3.69
2022-12-09T06:15:36.201Z,-3.39
2022-12-09T06:18:03.377Z,-3.60
2022-12-09T06:20:30.721Z,-3.69
2022-12-09T06:22:57.712Z,-3.66
2022-12-09T06:25:24.694Z,-4.06
2022-12-09T06:27:53.254Z,-3.67
2022-12-09T06:30:20.400Z,-3.99
2022-12-09T06:32:47.565Z,-3.80
2022-12-09T06:35:15.419Z,-4.03
2022-12-09T06:37:43.000Z,-3.93
2022-12-09T06:40:10.343Z,-4.04
2022-12-09T06:42:37.629Z,-3.85
2022-12-09T06:45:05.278Z,-4.27
2022-12-09T06:47:33.116Z,-3.90
2022-12-09T06:50:06.591Z,-4.08
2022-12-09T06:52:34.620Z,-3.80
2022-12-09T06:55:02.208Z,-3.62
2022-12-09T06:57:29.405Z,-3.66
2022-12-09T06:59:56.244Z,-3.81
2022-12-09T07:02:23.106Z,-4.01
2022-12-09T07:04:55.407Z,-3.65
2022-12-09T07:07:23.322Z,-3.49
2022-12-09T07:09:50.388Z,-3.76
2022-12-09T07:12:17.720Z,-3.44
2022-12-09T07:14:44.508Z,-3.57
2022-12-09T07:17:19.321Z,-3.42
2022-12-09T07:19:47.251Z,-3.30
2022-12-09T07:22:14.672Z,-3.79
2022-12-09T07:24:41.967Z,-3.24
2022-12-09T07:27:15.796Z,-3.34
2022-12-09T07:29:45.787Z,-3.21
2022-12-09T07:32:13.124Z,-3.54
2022-12-09T07:34:40.035Z,-3.51
2022-12-09T07:37:07.276Z,-3.15
2022-12-09T07:39:34.184Z,-3.41
2022-12-09T07:42:00.981Z,-3.13
2022-12-09T07:44:30.422Z,-3.20
2022-12-09T07:46:57.761Z,-3.31
2022-12-09T07:49:25.367Z,-3.09
2022-12-09T07:51:52.766Z,-3.48
2022-12-09T07:54:20.782Z,-3.35
2022-12-09T07:56:48.670Z,-3.01
2022-12-09T07:59:16.512Z,-3.15
2022-12-09T08:01:44.582Z,-2.98
2022-12-09T08:04:12.247Z,-2.84
2022-12-09T08:06:40.247Z,-2.83
2022-12-09T08:09:11.571Z,-2.89
2022-12-09T08:11:39.394Z,-2.66
2022-12-09T08:14:12.335Z,-2.64
2022-12-09T08:16:43.536Z,-2.73
2022-12-09T08:19:11.280Z,-2.61
2022-12-09T08:21:39.029Z,-2.62
2022-12-09T08:24:07.870Z,-2.79
2022-12-09T08:26:35.953Z,-2.88
2022-12-09T08:29:07.315Z,-2.82
2022-12-09T08:31:40.333Z,-2.60
2022-12-09T08:34:08.275Z,-2.63
2022-12-09T08:36:36.968Z,-2.72
2022-12-09T08:39:04.245Z,-2.59
2022-12-09T08:41:36.276Z,-2.76
2022-12-09T08:44:13.636Z,-2.61
2022-12-09T08:46:42.887Z,-2.58
2022-12-09T08:49:10.056Z,-2.69
2022-12-09T08:51:37.479Z,-2.46
2022-12-09T08:54:05.241Z,-2.60
2022-12-09T08:56:32.817Z,-2.34
2022-12-09T08:58:59.686Z,-2.36
2022-12-09T09:01:32.685Z,-2.42
2022-12-09T09:04:12.503Z,-2.20
2022-12-09T09:06:41.534Z,-2.49
2022-12-09T09:09:10.862Z,-1.97
2022-12-09T09:11:38.604Z,-2.32
2022-12-09T09:14:07.100Z,-1.95
2022-12-09T09:16:35.549Z,-1.88
2022-12-09T09:19:05.883Z,-2.09
2022-12-09T09:21:34.729Z,-2.05
2022-12-09T09:24:01.673Z,-2.10
2022-12-09T09:26:30.270Z,-2.00
2022-12-09T09:28:57.399Z,-1.77
2022-12-09T09:31:26.026Z,-1.66
2022-12-09T09:33:53.441Z,-1.71
2022-12-09T09:36:23.790Z,-1.54
2022-12-09T09:38:53.939Z,-1.48
2022-12-09T09:41:39.362Z,-1.45
2022-12-09T09:44:31.752Z,-1.37
2022-12-09T09:47:00.448Z,-1.25
2022-12-09T09:50:15.494Z,-1.04
2022-12-09T09:52:42.929Z,-0.88
2022-12-09T09:55:18.565Z,-0.76
2022-12-09T09:58:11.139Z,-0.81
2022-12-09T10:00:43.909Z,-0.69
2022-12-09T10:03:32.518Z,-1.20
2022-12-09T10:06:07.011Z,-0.75
2022-12-09T10:08:44.709Z,-0.69
2022-12-09T10:11:21.063Z,-0.62
2022-12-09T10:13:54.973Z,-0.75
2022-12-09T10:16:25.139Z,-0.68
2022-12-09T10:19:08.130Z,-0.67
2022-12-09T10:21:42.249Z,-0.91
2022-12-09T10:24:18.218Z,-0.77
2022-12-09T10:27:09.661Z,-0.86
2022-12-09T10:29:45.784Z,-0.73
2022-12-09T10:32:18.115Z,-0.62
2022-12-09T10:34:47.712Z,-0.55
2022-12-09T10:37:25.948Z,-0.80
2022-12-09T10:40:00.901Z,-0.66
2022-12-09T10:43:00.847Z,-0.65
2022-12-09T10:45:45.658Z,-0.67
2022-12-09T10:48:32.793Z,-0.49
2022-12-09T10:51:04.078Z,-0.39
2022-12-09T10:53:32.505Z,-0.21
2022-12-09T10:56:01.997Z,-0.08
2022-12-09T10:58:31.098Z,0.23
2022-12-09T11:01:05.469Z,0.20
2022-12-09T11:03:39.916Z,0.02
2022-12-09T11:06:20.482Z,0.55
2022-12-09T11:08:55.428Z,0.43
2022-12-09T11:11:49.864Z,0.45
2022-12-09T11:14:23.262Z,0.63
2022-12-09T11:16:55.667Z,0.32
2022-12-09T11:19:30.865Z,0.26
2022-12-09T11:22:24.286Z,0.29
2022-12-09T11:24:56.493Z,0.26
2022-12-09T11:27:34.711Z,0.15
2022-12-09T11:30:20.315Z,0.18
2022-12-09T11:33:15.372Z,0.20
2022-12-09T11:35:43.516Z,0.16
2022-12-09T11:38:17.301Z,0.26
2022-12-09T11:40:56.802Z,0.10
2022-12-09T11:43:33.172Z,-0.13
2022-12-09T11:45:59.959Z,-0.03
2022-12-09T11:48:37.503Z,-0.29
2022-12-09T11:51:20.966Z,-0.14
2022-12-09T11:53:48.131Z,-0.08
2022-12-09T11:56:22.836Z,-0.07
2022-12-09T11:59:11.701Z,0.05
2022-12-09T12:01:54.344Z,-0.13
2022-12-09T12:04:39.352Z,0.14
2022-12-09T12:07:14.387Z,0.26
2022-12-09T12:09:53.225Z,0.33
2022-12-09T12:12:29.239Z,0.20
2022-12-09T12:15:01.875Z,0.18
2022-12-09T12:17:43.447Z,0.29
2022-12-09T12:20:13.173Z,0.45
2022-12-09T12:23:13.847Z,0.34
2022-12-09T12:26:01.039Z,0.33
2022-12-09T12:29:07.097Z,0.18
2022-12-09T12:31:51.353Z,0.27
2022-12-09T12:34:42.402Z,0.30
2022-12-09T12:37:15.064Z,0.18
2022-12-09T12:40:03.785Z,0.29
2022-12-09T12:43:08.744Z,0.21
2022-12-09T12:46:08.261Z,-0.01
2022-12-09T12:48:51.043Z,-0.05
2022-12-09T12:51:25.861Z,0.16
2022-12-09T12:54:17.423Z,0.10
2022-12-09T12:57:17.521Z,-0.20
2022-12-09T12:59:56.736Z,-0.09
2022-12-09T13:02:23.460Z,-0.41
2022-12-09T13:04:57.402Z,-0.08
2022-12-09T13:07:35.664Z,0.04
2022-12-09T13:10:25.110Z,0.19
2022-12-09T13:12:56.535Z,0.14
2022-12-09T13:15:36.971Z,0.07
2022-12-09T13:18:26.780Z,0.11
2022-12-09T13:20:56.394Z,0.05
2022-12-09T13:23:41.324Z,-0.14
2022-12-09T13:26:33.972Z,-0.14
2022-12-09T13:29:31.026Z,-0.06
2022-12-09T13:32:16.344Z,0.01
2022-12-09T13:34:54.341Z,-0.22
2022-12-09T13:37:36.274Z,0.18
2022-12-09T13:40:23.909Z,-0.12
2022-12-09T13:42:57.519Z,0.11
2022-12-09T13:45:29.143Z,-0.08
2022-12-09T13:47:58.493Z,-0.35
2022-12-09T13:50:34.130Z,-0.33
2022-12-09T13:53:04.703Z,-0.23
2022-12-09T13:55:36.727Z,-0.14
2022-12-09T13:58:33.901Z,-0.12
2022-12-09T14:01:06.408Z,-0.20
2022-12-09T14:03:37.560Z,-0.39
2022-12-09T14:06:16.909Z,-0.36
2022-12-09T14:08:49.309Z,-0.54
2022-12-09T14:11:37.698Z,-0.65
2022-12-09T14:14:22.877Z,-0.65
2022-12-09T14:16:57.737Z,-0.75
2022-12-09T14:19:24.280Z,-0.62
2022-12-09T14:22:19.743Z,-0.74
2022-12-09T14:24:57.645Z,-0.68
2022-12-09T14:27:27.252Z,-0.77
2022-12-09T14:29:53.817Z,-0.78
2022-12-09T14:32:33.677Z,-0.84
2022-12-09T14:35:06.795Z,-0.80
2022-12-09T14:38:03.612Z,-1.03
2022-12-09T14:40:35.949Z,-0.97
2022-12-09T14:43:05.560Z,-0.85
2022-12-09T14:45:52.182Z,-1.08
2022-12-09T14:48:26.100Z,-0.88
2022-12-09T14:51:16.980Z,-0.96
2022-12-09T14:53:48.276Z,-0.93
2022-12-09T14:56:18.425Z,-0.91
2022-12-09T14:58:50.462Z,-1.00
2022-12-09T15:01:21.029Z,-1.38
2022-12-09T15:03:59.228Z,-1.02
2022-12-09T15:06:27.015Z,-1.41
2022-12-09T15:08:56.350Z,-1.01
2022-12-09T15:11:35.910Z,-1.07
2022-12-09T15:14:26.256Z,-1.10
2022-12-09T15:16:54.689Z,-1.43
2022-12-09T15:19:59.118Z,-1.22
2022-12-09T15:22:22.401Z,-1.26
2022-12-09T15:24:51.123Z,-1.25
2022-12-09T15:27:20.894Z,-1.14
2022-12-09T15:29:47.562Z,-1.16
2022-12-09T15:32:29.948Z,-1.26
2022-12-09T15:35:15.746Z,-1.41
2022-12-09T15:37:42.835Z,-1.37
2022-12-09T15:40:15.556Z,-1.27
2022-12-09T15:42:45.977Z,-1.41
2022-12-09T15:45:26.329Z,-1.37
2022-12-09T15:48:09.665Z,-1.37
2022-12-09T15:50:49.836Z,-1.59
2022-12-09T15:53:24.809Z,-1.33
2022-12-09T15:56:03.410Z,-1.36
2022-12-09T15:58:38.740Z,-1.30
2022-12-09T16:01:05.782Z,-1.41
2022-12-09T16:03:34.870Z,-1.38
2022-12-09T16:06:06.302Z,-1.51
2022-12-09T16:08:37.499Z,-1.87
2022-12-09T16:11:04.585Z,-1.33
2022-12-09T16:13:31.681Z,-1.32
2022-12-09T16:16:00.750Z,-1.29
2022-12-09T16:18:49.707Z,-1.33
2022-12-09T16:21:16.278Z,-1.44
2022-12-09T16:23:45.241Z,-1.84
2022-12-09T16:26:21.052Z,-1.75
2022-12-09T16:28:55.536Z,-1.73
2022-12-09T16:31:22.596Z,-1.83
2022-12-09T16:33:50.956Z,-1.43
2022-12-09T16:36:21.357Z,-1.45
2022-12-09T16:39:06.814Z,-1.38
2022-12-09T16:41:51.378Z,-1.33
2022-12-09T16:44:29.738Z,-1.35
2022-12-09T16:47:10.688Z,-1.45
2022-12-09T16:49:38.486Z,-1.27
2022-12-09T16:52:05.309Z,-1.35
2022-12-09T16:54:32.397Z,-1.43
2022-12-09T16:56:59.394Z,-1.41
2022-12-09T16:59:31.910Z,-1.39
2022-12-09T17:02:04.794Z,-1.06
2022-12-09T17:04:31.539Z,-1.38
2022-12-09T17:06:58.194Z,-1.37
2022-12-09T17:09:24.783Z,-1.25
2022-12-09T17:11:51.374Z,-1.28
2022-12-09T17:14:18.086Z,-1.57
2022-12-09T17:16:44.809Z,-1.41
2022-12-09T17:19:12.458Z,-1.63
2022-12-09T17:21:39.018Z,-1.30
2022-12-09T17:24:06.076Z,-1.56
2022-12-09T17:26:32.700Z,-1.48
2022-12-09T17:29:01.817Z,-1.56
2022-12-09T17:31:29.661Z,-1.29
2022-12-09T17:33:57.061Z,-1.23
2022-12-09T17:36:24.095Z,-1.54
2022-12-09T17:38:50.728Z,-1.56
2022-12-09T17:41:20.583Z,-1.34
2022-12-09T17:43:47.482Z,-1.43
2022-12-09T17:46:14.459Z,-1.38
2022-12-09T17:48:41.936Z,-1.45
2022-12-09T17:51:14.199Z,-1.46
2022-12-09T17:53:42.634Z,-1.36
2022-12-09T17:56:11.784Z,-1.36
2022-12-09T17:58:39.648Z,-1.45
2022-12-09T18:01:16.653Z,-1.54
2022-12-09T18:04:02.919Z,-1.32
2022-12-09T18:06:34.075Z,-1.33
2022-12-09T18:09:01.949Z,-1.74
2022-12-09T18:11:28.595Z,-1.44
2022-12-09T18:13:55.200Z,-1.59
2022-12-09T18:16:21.990Z,-1.41
2022-12-09T18:18:48.970Z,-1.62
2022-12-09T18:21:16.538Z,-1.48
2022-12-09T18:23:43.489Z,-1.46
2022-12-09T18:26:12.769Z,-1.58
2022-12-09T18:28:39.884Z,-1.63
2022-12-09T18:31:11.918Z,-1.50
2022-12-09T18:33:39.224Z,-1.65
2022-12-09T18:36:13.170Z,-1.40
2022-12-09T18:38:40.759Z,-1.71
2022-12-09T18:41:34.096Z,-1.32
2022-12-09T18:44:03.174Z,-1.87
2022-12-09T18:46:33.214Z,-1.46
2022-12-09T18:49:04.855Z,-1.70
2022-12-09T18:51:32.769Z,-1.69
2022-12-09T18:54:00.919Z,-1.75
2022-12-09T18:56:27.667Z,-1.64
2022-12-09T18:59:06.558Z,-1.67
2022-12-09T19:01:39.031Z,-1.39
2022-12-09T19:04:07.471Z,-1.77
2022-12-09T19:06:36.841Z,-1.43
2022-12-09T19:09:07.361Z,-1.40
2022-12-09T19:11:36.844Z,-1.39
2022-12-09T19:14:04.997Z,-1.38
2022-12-09T19:16:32.308Z,-1.74
2022-12-09T19:19:05.339Z,-1.41
2022-12-09T19:21:35.591Z,-1.71
2022-12-09T19:24:02.236Z,-1.55
2022-12-09T19:26:31.655Z,-1.50
2022-12-09T19:29:00.835Z,-1.51
2022-12-09T19:31:30.530Z,-1.75
2022-12-09T19:34:02.872Z,-1.48
2022-12-09T19:36:31.136Z,-1.47
2022-12-09T19:38:58.059Z,-1.69
2022-12-09T19:41:24.705Z,-1.37
2022-12-09T19:43:55.810Z,-1.62
2022-12-09T19:46:22.738Z,-1.58
2022-12-09T19:48:49.684Z,-1.70
2022-12-09T19:51:18.610Z,-1.77
2022-12-09T19:53:46.435Z,-1.53
2022-12-09T19:56:15.382Z,-1.55
2022-12-09T19:58:42.946Z,-1.59
2022-12-09T20:01:18.630Z,-1.51
2022-12-09T20:03:47.896Z,-1.51
2022-12-09T20:06:18.130Z,-1.82
2022-12-09T20:08:45.046Z,-1.65
2022-12-09T20:11:14.485Z,-1.90
2022-12-09T20:13:41.988Z,-1.68
2022-12-09T20:16:12.176Z,-1.50
2022-12-09T20:18:39.263Z,-1.50
2022-12-09T20:21:08.734Z,-1.76
2022-12-09T20:23:36.743Z,-1.65
2022-12-09T20:26:09.745Z,-1.57
2022-12-09T20:28:40.652Z,-1.43
2022-12-09T20:31:10.719Z,-1.65
2022-12-09T20:33:37.743Z,-1.57
2022-12-09T20:36:20.536Z,-1.42
2022-12-09T20:39:01.849Z,-1.48
2022-12-09T20:41:28.862Z,-1.58
2022-12-09T20:43:59.547Z,-1.51
2022-12-09T20:46:29.301Z,-1.35
2022-12-09T20:48:57.874Z,-1.40
2022-12-09T20:51:27.453Z,-1.32
2022-12-09T20:53:54.793Z,-1.39
2022-12-09T20:56:23.629Z,-1.37
2022-12-09T20:58:51.594Z,-1.37
2022-12-09T21:01:21.862Z,-1.40
2022-12-09T21:03:49.796Z,-1.32
2022-12-09T21:06:18.911Z,-1.36
2022-12-09T21:08:46.061Z,-1.41
2022-12-09T21:11:16.534Z,-1.33
2022-12-09T21:13:48.518Z,-1.38
2022-12-09T21:16:20.203Z,-1.38
2022-12-09T21:18:50.670Z,-1.66
2022-12-09T21:21:18.831Z,-1.34
2022-12-09T21:23:45.847Z,-1.55
2022-12-09T21:26:18.124Z,-1.44
2022-12-09T21:28:46.669Z,-1.38
2022-12-09T21:31:16.644Z,-1.37
2022-12-09T21:33:45.453Z,-1.37
2022-12-09T21:36:15.213Z,-1.39
2022-12-09T21:38:42.636Z,-1.38
2022-12-09T21:41:12.100Z,-1.32
2022-12-09T21:43:39.638Z,-1.74
2022-12-09T21:46:12.464Z,-1.48
2022-12-09T21:48:40.393Z,-1.36
2022-12-09T21:51:07.820Z,-1.36
2022-12-09T21:53:34.943Z,-1.65
2022-12-09T21:56:03.741Z,-1.34
2022-12-09T21:58:31.855Z,-1.34
2022-12-09T22:00:59.799Z,-1.38
2022-12-09T22:03:29.388Z,-1.48
2022-12-09T22:05:59.685Z,-1.44
2022-12-09T22:08:27.190Z,-1.53
2022-12-09T22:10:54.021Z,-1.44
2022-12-09T22:13:21.994Z,-1.40
2022-12-09T22:15:48.698Z,-1.38
2022-12-09T22:18:15.377Z,-1.42
2022-12-09T22:21:15.957Z,-1.52
2022-12-09T22:23:32.011Z,-1.51
2022-12-09T22:25:59.044Z,-1.63
2022-12-09T22:28:25.973Z,-1.66
2022-12-09T22:30:52.602Z,-1.64
2022-12-09T22:33:19.187Z,-1.55
2022-12-09T22:35:46.774Z,-1.67
2022-12-09T22:38:14.811Z,-1.71
2022-12-09T22:40:41.998Z,-1.82
2022-12-09T22:43:08.628Z,-1.63
2022-12-09T22:45:36.429Z,-1.74
2022-12-09T22:48:03.968Z,-1.44
2022-12-09T22:50:30.884Z,-1.48
2022-12-09T22:52:57.461Z,-1.46
2022-12-09T22:55:24.204Z,-1.53
2022-12-09T22:57:51.873Z,-1.56
2022-12-09T23:00:18.733Z,-2.05
2022-12-09T23:02:45.637Z,-1.89
2022-12-09T23:05:12.307Z,-1.39
2022-12-09T23:07:38.991Z,-1.68
2022-12-09T23:10:06.517Z,-1.45
2022-12-09T23:12:33.485Z,-1.32
2022-12-09T23:15:00.078Z,-1.56
2022-12-09T23:17:26.973Z,-1.72
2022-12-09T23:19:53.635Z,-1.31
2022-12-09T23:22:20.301Z,-1.59
2022-12-09T23:24:47.867Z,-1.31
2022-12-09T23:27:14.487Z,-1.42
2022-12-09T23:29:41.071Z,-1.33
2022-12-09T23:32:07.757Z,-1.32
2022-12-09T23:34:34.382Z,-1.46
2022-12-09T23:37:01.048Z,-1.36
2022-12-09T23:39:27.699Z,-1.74
2022-12-09T23:41:54.620Z,-1.58
2022-12-09T23:44:21.252Z,-1.55
2022-12-09T23:46:48.056Z,-1.71
2022-12-09T23:49:14.765Z,-1.54
2022-12-09T23:51:43.825Z,-1.72
2022-12-09T23:54:12.176Z,-1.88
2022-12-09T23:56:40.469Z,-1.80
2022-12-09T23:59:09.777Z,-1.61
